Time;durP1;ratioP1;P1;durP2;ratioP2;P2;SDS_P1;SDS_P2;PMS_P1;PMS_P2;Temp;Humidity;BMP_temperature;BMP_pressure;BME280_temperature;BME280_humidity;BME280_pressure;Samples;Min_cycle;Max_cycle;Signal;HPM_P1;HPM_P2
2023/03/12 00:01:51;;;;;;;32.30;7.10;;;14.10;55.70;;;;;;5072013;28;20549;-92
2023/03/12 00:04:17;;;;;;;30.33;7.57;;;14.00;55.60;;;;;;5069423;28;20218;-88
2023/03/12 00:06:46;;;;;;;27.80;6.83;;;14.10;55.70;;;;;;5068392;28;20664;-89
2023/03/12 00:09:13;;;;;;;29.30;6.87;;;14.00;55.60;;;;;;5069567;28;20238;-89
2023/03/12 00:11:40;;;;;;;34.73;7.67;;;14.00;55.60;;;;;;5072180;28;20207;-88
2023/03/12 00:14:06;;;;;;;40.23;7.97;;;14.00;55.60;;;;;;5058827;28;20250;-87
2023/03/12 00:16:36;;;;;;;86.23;11.63;;;14.00;55.60;;;;;;5067798;28;20195;-90
2023/03/12 00:19:03;;;;;;;37.23;7.90;;;14.00;55.60;;;;;;5069885;28;20196;-90
2023/03/12 00:21:30;;;;;;;28.20;7.67;;;14.00;55.60;;;;;;5070523;28;20211;-89
2023/03/12 00:23:58;;;;;;;39.43;7.60;;;14.00;55.70;;;;;;5067337;28;20204;-89
2023/03/12 00:26:25;;;;;;;27.00;6.90;;;14.00;55.60;;;;;;5070313;28;20203;-89
2023/03/12 00:28:52;;;;;;;33.50;7.73;;;14.00;55.60;;;;;;5069602;28;20303;-88
2023/03/12 00:31:25;;;;;;;48.60;8.47;;;14.00;55.60;;;;;;5068235;28;20245;-88
2023/03/12 00:33:53;;;;;;;27.13;6.63;;;14.00;55.60;;;;;;5070738;28;20203;-88
2023/03/12 00:36:23;;;;;;;38.13;7.77;;;14.00;55.60;;;;;;5070069;28;20217;-88
2023/03/12 00:38:50;;;;;;;25.03;6.93;;;13.90;55.60;;;;;;5070491;28;20191;-87
2023/03/12 00:41:19;;;;;;;23.63;6.07;;;14.00;55.60;;;;;;5064488;28;20200;-89
2023/03/12 00:43:46;;;;;;;30.67;7.43;;;13.90;55.60;;;;;;5070737;28;20667;-89
2023/03/12 00:46:13;;;;;;;33.87;7.27;;;13.90;55.60;;;;;;5070466;28;20207;-86
2023/03/12 00:48:41;;;;;;;23.50;6.53;;;13.90;55.60;;;;;;5070434;28;20222;-88
2023/03/12 00:51:08;;;;;;;27.97;6.43;;;13.90;55.60;;;;;;5067967;28;20250;-87
2023/03/12 00:53:36;;;;;;;28.30;7.20;;;13.90;55.60;;;;;;5069668;28;20550;-87
2023/03/12 00:56:03;;;;;;;39.37;7.63;;;13.90;55.60;;;;;;5069852;28;20219;-87
2023/03/12 00:58:32;;;;;;;34.23;7.33;;;13.90;56.20;;;;;;5049974;28;20203;-89
2023/03/12 01:00:59;;;;;;;46.53;7.90;;;13.90;55.50;;;;;;5062114;28;20203;-88
2023/03/12 01:03:26;;;;;;;27.67;7.00;;;13.90;55.60;;;;;;5068958;28;20369;-88
2023/03/12 01:05:54;;;;;;;50.33;8.57;;;13.90;55.60;;;;;;5069163;28;20217;-89
2023/03/12 01:08:22;;;;;;;39.47;8.13;;;13.90;55.60;;;;;;5068667;28;20206;-89
2023/03/12 01:10:50;;;;;;;29.13;6.83;;;13.90;55.60;;;;;;5069991;28;20249;-89
2023/03/12 01:13:18;;;;;;;34.83;7.03;;;13.90;55.70;;;;;;5069368;28;20215;-88
2023/03/12 01:15:46;;;;;;;24.57;6.17;;;13.90;55.60;;;;;;5068249;28;20279;-90
2023/03/12 01:18:13;;;;;;;30.63;6.87;;;13.80;55.50;;;;;;5067468;28;20746;-94
2023/03/12 01:20:40;;;;;;;28.07;6.33;;;13.80;55.60;;;;;;5070144;28;20211;-87
2023/03/12 01:23:07;;;;;;;29.80;6.60;;;13.80;55.60;;;;;;5069500;28;20216;-87
2023/03/12 01:25:34;;;;;;;31.93;7.07;;;13.80;55.60;;;;;;5068126;28;20565;-89
2023/03/12 01:28:01;;;;;;;39.63;7.17;;;13.80;55.60;;;;;;5070125;28;20202;-89
2023/03/12 01:30:28;;;;;;;44.30;8.27;;;13.80;55.60;;;;;;5063096;28;20207;-87
2023/03/12 01:32:56;;;;;;;46.73;8.07;;;13.80;55.60;;;;;;5068859;28;20197;-88
2023/03/12 01:35:23;;;;;;;32.00;6.93;;;13.80;55.50;;;;;;5053131;28;20649;-86
2023/03/12 01:37:51;;;;;;;29.00;6.67;;;13.80;55.60;;;;;;5056745;28;20286;-86
2023/03/12 01:40:24;;;;;;;57.43;8.67;;;13.80;55.60;;;;;;5067938;28;20206;-86
2023/03/12 01:42:53;;;;;;;22.37;6.13;;;13.80;55.60;;;;;;5049691;28;20221;-89
2023/03/12 01:45:57;;;;;;;39.35;7.60;;;13.80;55.60;;;;;;5064490;28;20443;-86
2023/03/12 01:48:30;;;;;;;41.67;8.03;;;13.80;55.70;;;;;;5066950;28;20644;-87
2023/03/12 01:50:57;;;;;;;33.03;7.30;;;13.80;55.70;;;;;;5069393;28;20227;-86
2023/03/12 01:53:24;;;;;;;29.77;6.93;;;13.80;55.80;;;;;;5069130;28;20195;-87
2023/03/12 01:55:54;;;;;;;30.75;7.45;;;13.80;55.60;;;;;;5068002;28;20432;-86
2023/03/12 01:58:21;;;;;;;30.27;6.77;;;13.80;55.80;;;;;;5067762;28;20244;-87
2023/03/12 02:00:48;;;;;;;34.27;6.90;;;13.70;55.80;;;;;;5068800;28;20705;-86
2023/03/12 02:03:15;;;;;;;31.57;6.83;;;13.80;55.70;;;;;;5067492;28;20243;-86
2023/03/12 02:05:48;;;;;;;32.90;7.10;;;13.80;55.60;;;;;;5068779;28;20215;-90
2023/03/12 02:08:17;;;;;;;23.00;6.33;;;13.80;55.60;;;;;;5067294;28;20210;-87
2023/03/12 02:10:44;;;;;;;24.00;6.20;;;13.80;55.60;;;;;;5068913;28;20226;-90
2023/03/12 02:13:12;;;;;;;20.70;6.40;;;13.90;55.60;;;;;;5067565;28;20217;-89
2023/03/12 02:15:39;;;;;;;29.10;7.13;;;13.80;55.50;;;;;;5068448;28;20203;-89
2023/03/12 02:18:09;;;;;;;32.13;7.87;;;13.80;55.50;;;;;;5066363;28;20648;-91
2023/03/12 02:20:41;;;;;;;22.83;6.33;;;13.80;55.50;;;;;;5069314;28;20207;-91
2023/03/12 02:23:13;;;;;;;21.90;6.50;;;13.80;55.50;;;;;;5069647;28;20191;-92
2023/03/12 02:25:45;;;;;;;21.60;6.40;;;13.80;55.50;;;;;;5068012;28;20309;-90
2023/03/12 02:28:14;;;;;;;31.23;7.20;;;13.80;55.50;;;;;;5067843;28;20655;-88
2023/03/12 02:30:45;;;;;;;31.47;7.63;;;13.80;55.50;;;;;;5067714;28;20240;-90
2023/03/12 02:33:15;;;;;;;31.17;7.23;;;13.80;55.50;;;;;;5068356;28;20590;-87
2023/03/12 02:35:43;;;;;;;29.47;6.90;;;13.80;55.50;;;;;;5068600;28;20223;-87
2023/03/12 02:38:37;;;;;;;28.77;6.83;;;13.80;55.50;;;;;;5069568;28;20211;-92
2023/03/12 02:41:10;;;;;;;29.60;7.60;;;13.80;55.50;;;;;;5067538;28;20199;-87
2023/03/12 02:43:42;;;;;;;41.17;8.07;;;13.70;55.40;;;;;;5067876;28;20652;-87
2023/03/12 02:46:09;;;;;;;25.43;7.03;;;13.80;55.50;;;;;;5069787;28;20213;-88
2023/03/12 02:48:36;;;;;;;35.50;7.67;;;13.70;55.50;;;;;;5072233;28;20215;-88
2023/03/12 02:51:03;;;;;;;28.33;7.07;;;13.80;55.60;;;;;;5071986;28;20227;-86
2023/03/12 02:53:30;;;;;;;32.00;6.70;;;13.70;55.50;;;;;;5071928;28;20281;-87
2023/03/12 02:55:57;;;;;;;25.33;7.20;;;13.70;55.50;;;;;;5072529;28;20552;-89
2023/03/12 02:58:26;;;;;;;34.13;7.87;;;13.70;55.50;;;;;;5071638;28;20678;-89
2023/03/12 03:00:53;;;;;;;35.50;7.50;;;13.70;55.50;;;;;;5070406;28;20213;-87
2023/03/12 03:03:20;;;;;;;23.00;6.80;;;13.70;56.10;;;;;;5072847;28;20205;-87
2023/03/12 03:05:47;;;;;;;24.00;7.27;;;13.70;55.50;;;;;;5072525;28;20197;-89
2023/03/12 03:08:13;;;;;;;27.13;7.13;;;13.70;55.60;;;;;;5072761;28;20230;-87
2023/03/12 03:10:40;;;;;;;39.60;7.77;;;13.70;55.60;;;;;;5071163;28;20319;-87
2023/03/12 03:13:11;;;;;;;26.80;6.57;;;13.70;55.50;;;;;;5071979;28;20206;-88
2023/03/12 03:15:39;;;;;;;39.00;8.37;;;13.70;55.60;;;;;;5072647;28;20210;-88
2023/03/12 03:18:06;;;;;;;24.37;6.87;;;13.70;55.50;;;;;;5072264;28;20203;-86
2023/03/12 03:20:33;;;;;;;39.13;8.07;;;13.70;55.60;;;;;;5071233;28;20187;-86
2023/03/12 03:23:00;;;;;;;32.63;7.80;;;13.70;55.60;;;;;;5072391;28;20264;-87
2023/03/12 03:25:27;;;;;;;28.50;7.23;;;13.70;55.60;;;;;;5072011;28;20214;-86
2023/03/12 03:27:54;;;;;;;33.43;7.90;;;13.60;55.50;;;;;;5069173;28;20211;-89
2023/03/12 03:30:21;;;;;;;26.83;6.77;;;13.70;55.60;;;;;;5063282;28;20577;-89
2023/03/12 03:32:49;;;;;;;31.10;7.37;;;13.60;55.50;;;;;;5071895;28;20207;-87
2023/03/12 03:35:17;;;;;;;24.80;7.20;;;13.70;55.60;;;;;;5071430;28;20214;-87
2023/03/12 03:37:46;;;;;;;39.13;7.83;;;13.60;55.50;;;;;;5070904;28;20214;-90
2023/03/12 03:40:13;;;;;;;33.57;7.37;;;13.70;55.60;;;;;;5072062;28;20249;-88
2023/03/12 03:42:40;;;;;;;30.93;7.07;;;13.60;55.50;;;;;;5071564;28;20214;-87
2023/03/12 03:45:09;;;;;;;23.70;6.73;;;13.60;55.50;;;;;;5070148;28;20221;-86
2023/03/12 03:47:36;;;;;;;52.47;8.90;;;13.60;55.50;;;;;;5070489;28;20212;-88
2023/03/12 03:50:06;;;;;;;32.00;7.03;;;13.60;56.10;;;;;;5069608;28;20206;-87
2023/03/12 03:52:33;;;;;;;29.87;7.57;;;13.60;55.60;;;;;;5070014;28;20219;-87
2023/03/12 03:55:00;;;;;;;36.37;7.97;;;13.60;55.60;;;;;;5070157;28;20538;-94
2023/03/12 03:57:27;;;;;;;23.17;6.70;;;13.60;55.60;;;;;;5071767;28;20260;-90
2023/03/12 03:59:54;;;;;;;30.37;7.73;;;13.60;55.60;;;;;;5070513;28;20199;-89
2023/03/12 04:02:22;;;;;;;30.53;7.63;;;13.70;55.70;;;;;;5071920;28;20208;-88
2023/03/12 04:04:49;;;;;;;27.70;7.00;;;13.60;55.60;;;;;;5071305;28;20835;-87
2023/03/12 04:07:17;;;;;;;28.90;7.43;;;13.60;55.60;;;;;;5074606;28;20207;-91
2023/03/12 04:09:44;;;;;;;35.27;7.77;;;13.60;55.60;;;;;;5071814;28;20633;-88
2023/03/12 04:12:11;;;;;;;30.87;7.57;;;13.60;55.60;;;;;;5070941;28;20243;-88
2023/03/12 04:14:42;;;;;;;30.77;7.83;;;13.60;55.70;;;;;;5069523;28;20557;-87
2023/03/12 04:17:09;;;;;;;28.80;7.23;;;13.60;55.60;;;;;;5071712;28;20240;-87
2023/03/12 04:19:36;;;;;;;38.03;7.73;;;13.60;55.60;;;;;;5069039;28;20193;-90
2023/03/12 04:22:03;;;;;;;36.83;7.67;;;13.60;55.60;;;;;;5069343;28;20211;-86
2023/03/12 04:24:31;;;;;;;39.20;8.80;;;13.60;55.60;;;;;;5069274;28;20437;-86
2023/03/12 04:26:58;;;;;;;58.03;10.13;;;13.60;55.60;;;;;;5069975;28;20231;-86
2023/03/12 04:29:26;;;;;;;30.77;7.47;;;13.60;55.60;;;;;;5071094;28;20202;-86
2023/03/12 04:31:53;;;;;;;42.10;8.77;;;13.60;55.60;;;;;;5070909;28;20230;-88
2023/03/12 04:34:20;;;;;;;36.23;8.30;;;13.60;55.60;;;;;;5069584;28;20650;-87
2023/03/12 04:36:48;;;;;;;31.57;7.73;;;13.60;55.60;;;;;;5069188;28;20195;-87
2023/03/12 04:39:17;;;;;;;29.10;7.33;;;13.60;55.70;;;;;;5070692;28;20606;-87
2023/03/12 04:41:46;;;;;;;27.63;7.60;;;13.60;55.70;;;;;;5070201;28;20631;-86
2023/03/12 04:44:14;;;;;;;32.93;8.20;;;13.60;55.70;;;;;;5069081;28;20254;-86
2023/03/12 04:46:41;;;;;;;36.97;8.50;;;13.60;55.70;;;;;;5069111;28;20200;-87
2023/03/12 04:49:08;;;;;;;27.70;7.70;;;13.60;55.70;;;;;;5069117;28;20224;-87
2023/03/12 04:51:35;;;;;;;28.97;8.37;;;13.60;55.70;;;;;;5068689;28;20250;-87
2023/03/12 04:54:02;;;;;;;28.80;8.37;;;13.60;55.70;;;;;;5069605;28;20206;-88
2023/03/12 04:56:29;;;;;;;33.90;9.30;;;13.50;55.60;;;;;;5068863;28;20200;-86
2023/03/12 04:58:57;;;;;;;37.97;9.70;;;13.60;55.70;;;;;;5070115;28;20309;-88
2023/03/12 05:01:26;;;;;;;37.17;9.43;;;13.60;55.70;;;;;;5068703;28;20214;-91
2023/03/12 05:03:54;;;;;;;36.20;9.13;;;13.60;55.70;;;;;;5066886;28;20722;-88
2023/03/12 05:06:21;;;;;;;33.57;8.63;;;13.60;55.80;;;;;;5069719;28;20211;-86
2023/03/12 05:08:49;;;;;;;42.80;9.87;;;13.50;55.60;;;;;;5066864;28;20213;-87
2023/03/12 05:11:16;;;;;;;35.03;8.77;;;13.50;55.70;;;;;;5067499;28;20234;-86
2023/03/12 05:13:43;;;;;;;53.27;10.83;;;13.60;55.70;;;;;;5068887;28;20217;-88
2023/03/12 05:16:13;;;;;;;30.67;9.30;;;13.60;56.30;;;;;;5069961;28;20204;-86
2023/03/12 05:18:39;;;;;;;29.00;9.30;;;13.50;55.60;;;;;;5068873;28;20196;-86
2023/03/12 05:21:09;;;;;;;32.07;8.73;;;13.50;55.60;;;;;;5069550;28;20195;-87
2023/03/12 05:23:38;;;;;;;26.73;8.53;;;13.40;55.50;;;;;;5068644;28;20210;-86
2023/03/12 05:26:05;;;;;;;27.43;8.93;;;13.50;55.70;;;;;;5069598;28;20194;-87
2023/03/12 05:28:33;;;;;;;29.50;9.13;;;13.50;55.70;;;;;;5069676;28;20211;-86
2023/03/12 05:31:00;;;;;;;37.93;10.10;;;13.60;55.80;;;;;;5067191;28;20209;-87
2023/03/12 05:33:29;;;;;;;33.50;9.77;;;13.60;55.80;;;;;;5067612;28;20199;-86
2023/03/12 05:35:56;;;;;;;33.33;9.93;;;13.50;55.70;;;;;;5069133;28;20195;-86
2023/03/12 05:38:22;;;;;;;42.47;10.33;;;13.50;55.70;;;;;;5068711;28;20217;-87
2023/03/12 05:40:54;;;;;;;30.33;9.60;;;13.60;55.80;;;;;;5068381;28;20210;-86
2023/03/12 05:43:20;;;;;;;34.43;10.03;;;13.60;55.80;;;;;;5068603;28;20206;-94
2023/03/12 05:45:48;;;;;;;25.73;9.43;;;13.60;55.80;;;;;;5069256;28;20582;-88
2023/03/12 05:48:15;;;;;;;32.73;9.93;;;13.60;55.80;;;;;;5068772;28;20218;-87
2023/03/12 05:50:44;;;;;;;32.87;9.30;;;13.60;55.80;;;;;;5069631;28;20212;-86
2023/03/12 05:53:11;;;;;;;33.73;9.40;;;13.50;55.70;;;;;;5068364;28;20722;-89
2023/03/12 05:55:39;;;;;;;36.23;9.93;;;13.60;55.80;;;;;;5068314;28;20203;-87
2023/03/12 05:58:07;;;;;;;34.03;9.13;;;13.50;55.70;;;;;;5068966;28;20203;-93
2023/03/12 06:00:36;;;;;;;30.73;9.17;;;13.50;55.70;;;;;;5068721;28;20214;-86
2023/03/12 06:03:04;;;;;;;29.83;8.80;;;13.50;55.80;;;;;;5067038;28;20300;-86
2023/03/12 06:05:30;;;;;;;33.07;9.57;;;13.50;55.80;;;;;;5067660;28;20219;-85
2023/03/12 06:07:59;;;;;;;30.37;9.57;;;13.60;56.50;;;;;;5068686;28;20206;-88
2023/03/12 06:10:26;;;;;;;34.57;9.50;;;13.50;55.80;;;;;;5068105;28;20577;-86
2023/03/12 06:12:52;;;;;;;36.07;10.23;;;13.50;55.80;;;;;;5068570;28;20245;-86
2023/03/12 06:15:20;;;;;;;31.00;9.00;;;13.50;55.90;;;;;;5065635;28;20207;-87
2023/03/12 06:17:47;;;;;;;31.93;9.57;;;13.60;55.90;;;;;;5067507;28;20195;-86
2023/03/12 06:20:14;;;;;;;36.20;10.30;;;13.60;55.90;;;;;;5068536;28;20199;-87
2023/03/12 06:22:41;;;;;;;31.43;9.30;;;13.60;56.00;;;;;;5068844;28;20193;-91
2023/03/12 06:25:10;;;;;;;34.47;9.20;;;13.60;56.00;;;;;;5068478;28;20676;-90
2023/03/12 06:27:37;;;;;;;26.53;9.87;;;13.60;56.00;;;;;;5069889;28;20203;-90
2023/03/12 06:30:05;;;;;;;67.93;12.20;;;13.60;56.00;;;;;;5066634;28;20280;-90
2023/03/12 06:32:32;;;;;;;32.77;8.77;;;13.60;56.00;;;;;;5066438;28;20265;-89
2023/03/12 06:35:00;;;;;;;35.50;9.73;;;13.60;56.00;;;;;;5068983;28;20216;-86
2023/03/12 06:37:26;;;;;;;43.03;10.13;;;13.60;56.00;;;;;;5068478;28;20207;-89
2023/03/12 06:39:53;;;;;;;51.07;10.77;;;13.60;56.00;;;;;;5069030;28;20568;-91
2023/03/12 06:42:22;;;;;;;35.63;9.33;;;13.60;56.00;;;;;;5065962;28;20546;-86
2023/03/12 06:44:49;;;;;;;39.03;9.70;;;13.60;56.00;;;;;;5068012;28;20223;-88
2023/03/12 06:47:16;;;;;;;38.67;9.80;;;13.60;56.00;;;;;;5064150;28;20211;-89
2023/03/12 06:49:43;;;;;;;40.10;10.50;;;13.70;56.10;;;;;;5068815;28;20289;-86
2023/03/12 06:52:10;;;;;;;30.10;8.97;;;13.60;56.00;;;;;;5068361;28;20238;-89
2023/03/12 06:54:37;;;;;;;27.20;8.83;;;13.60;56.00;;;;;;5065626;28;20287;-86
2023/03/12 06:57:04;;;;;;;32.30;8.83;;;13.60;56.00;;;;;;5068634;28;20205;-92
2023/03/12 06:59:32;;;;;;;35.27;9.00;;;13.60;56.10;;;;;;5068915;28;20213;-91
2023/03/12 07:01:59;;;;;;;37.10;9.33;;;13.60;56.00;;;;;;5065543;28;20199;-86
2023/03/12 07:04:26;;;;;;;34.17;9.00;;;13.60;56.10;;;;;;5065197;28;20213;-87
2023/03/12 07:06:53;;;;;;;24.47;8.57;;;13.60;56.00;;;;;;5064067;28;20207;-92
2023/03/12 07:09:21;;;;;;;32.60;8.50;;;13.60;56.10;;;;;;5066323;28;20263;-89
2023/03/12 07:11:47;;;;;;;44.00;9.97;;;13.60;56.10;;;;;;5066528;28;20215;-87
2023/03/12 07:14:14;;;;;;;34.37;8.73;;;13.60;56.10;;;;;;5051511;28;20207;-88
2023/03/12 07:16:42;;;;;;;37.40;8.67;;;13.60;56.10;;;;;;5067273;28;20203;-86
2023/03/12 07:19:09;;;;;;;39.37;8.77;;;13.70;56.10;;;;;;5068759;28;20204;-87
2023/03/12 07:21:36;;;;;;;30.37;8.07;;;13.70;56.20;;;;;;5068264;28;20206;-89
2023/03/12 07:24:05;;;;;;;45.00;9.03;;;13.70;56.10;;;;;;5068235;28;20662;-92
2023/03/12 07:26:34;;;;;;;28.63;7.97;;;13.70;56.10;;;;;;5068234;28;20219;-88
2023/03/12 07:29:01;;;;;;;31.53;7.80;;;13.70;56.10;;;;;;5067483;28;20207;-87
2023/03/12 07:31:28;;;;;;;47.57;9.63;;;13.70;56.10;;;;;;5069332;28;20208;-86
2023/03/12 07:33:56;;;;;;;38.70;8.87;;;13.70;56.10;;;;;;5077135;28;20266;-87
2023/03/12 07:36:24;;;;;;;47.63;10.30;;;13.70;56.20;;;;;;5081737;28;20218;-89
2023/03/12 07:38:51;;;;;;;75.77;13.63;;;13.70;56.20;;;;;;5072877;28;20272;-89
2023/03/12 07:41:21;;;;;;;102.30;16.17;;;13.70;56.20;;;;;;5064374;28;20286;-90
2023/03/12 07:43:48;;;;;;;62.07;13.27;;;13.80;56.30;;;;;;5067566;28;20196;-90
2023/03/12 07:46:15;;;;;;;53.60;11.73;;;13.70;56.20;;;;;;5067185;28;20213;-93
2023/03/12 07:48:42;;;;;;;64.70;12.07;;;13.80;56.30;;;;;;5065390;28;20208;-91
2023/03/12 07:51:11;;;;;;;77.23;12.63;;;13.90;56.40;;;;;;5071098;28;20284;-93
2023/03/12 07:53:38;;;;;;;40.07;10.33;;;13.80;56.30;;;;;;5071171;28;20223;-93
2023/03/12 07:56:06;;;;;;;46.07;12.03;;;13.80;56.30;;;;;;5072862;28;20202;-96
2023/03/12 07:58:35;;;;;;;58.00;11.43;;;13.80;56.30;;;;;;5071895;28;20208;-94
2023/03/12 08:01:02;;;;;;;60.17;11.30;;;13.90;56.40;;;;;;5078319;28;20560;-91
2023/03/12 08:03:29;;;;;;;47.03;10.27;;;13.90;56.50;;;;;;5073865;28;20218;-90
2023/03/12 08:05:57;;;;;;;67.80;12.17;;;13.90;56.40;;;;;;5070338;28;20257;-87
2023/03/12 08:08:28;;;;;;;45.17;10.27;;;13.90;56.50;;;;;;5068970;28;20701;-87
2023/03/12 08:10:55;;;;;;;45.97;9.63;;;13.90;57.10;;;;;;5066386;28;20214;-87
2023/03/12 08:13:23;;;;;;;64.63;11.50;;;13.90;56.50;;;;;;5064364;28;20262;-85
2023/03/12 08:15:50;;;;;;;52.87;10.67;;;13.90;56.50;;;;;;5070427;28;20705;-84
2023/03/12 08:18:17;;;;;;;51.87;11.07;;;13.90;56.50;;;;;;5068535;28;21303;-84
2023/03/12 08:20:49;;;;;;;48.93;10.13;;;14.00;56.60;;;;;;5057324;28;20843;-89
2023/03/12 08:23:16;;;;;;;51.60;10.63;;;13.90;56.50;;;;;;5078016;28;20208;-88
2023/03/12 08:25:46;;;;;;;39.67;8.93;;;14.00;56.60;;;;;;5066923;28;20234;-86
2023/03/12 08:28:14;;;;;;;67.57;10.97;;;14.00;56.50;;;;;;5069016;28;20261;-86
2023/03/12 08:30:45;;;;;;;52.43;10.53;;;14.00;56.60;;;;;;5064554;28;20191;-87
2023/03/12 08:33:12;;;;;;;40.70;8.97;;;14.00;56.60;;;;;;5068920;28;20258;-85
2023/03/12 08:35:39;;;;;;;32.47;9.00;;;14.00;56.60;;;;;;5065747;28;20632;-85
2023/03/12 08:38:06;;;;;;;31.10;8.53;;;14.00;56.60;;;;;;5050391;28;20667;-85
2023/03/12 08:40:33;;;;;;;59.13;10.43;;;14.00;56.60;;;;;;5055610;28;20203;-85
2023/03/12 08:43:01;;;;;;;48.47;10.67;;;14.10;56.80;;;;;;5070077;28;20203;-85
2023/03/12 08:45:28;;;;;;;44.23;8.60;;;14.10;56.80;;;;;;5069259;28;20233;-85
2023/03/12 08:47:55;;;;;;;58.90;10.50;;;14.20;56.90;;;;;;5069673;28;20663;-85
2023/03/12 08:50:24;;;;;;;41.40;8.80;;;14.10;56.80;;;;;;5070158;28;20205;-85
2023/03/12 08:52:51;;;;;;;41.23;8.40;;;14.10;56.80;;;;;;5069855;28;20730;-85
2023/03/12 08:55:18;;;;;;;73.47;10.77;;;14.20;56.90;;;;;;5067720;28;20612;-85
2023/03/12 08:57:45;;;;;;;33.37;7.90;;;14.20;56.90;;;;;;5070359;28;20213;-86
2023/03/12 09:00:16;;;;;;;34.30;8.30;;;14.20;56.90;;;;;;5070392;28;20199;-85
2023/03/12 09:02:44;;;;;;;39.70;9.00;;;14.20;56.90;;;;;;5069666;28;20192;-87
2023/03/12 09:05:12;;;;;;;38.73;8.27;;;14.20;56.90;;;;;;5069782;28;20218;-89
2023/03/12 09:07:39;;;;;;;43.23;8.33;;;14.20;56.90;;;;;;5069826;28;20204;-84
2023/03/12 09:10:07;;;;;;;32.47;8.33;;;14.20;56.90;;;;;;5068778;28;20203;-85
2023/03/12 09:12:34;;;;;;;39.30;8.47;;;14.20;56.90;;;;;;5070008;28;20746;-89
2023/03/12 09:15:01;;;;;;;34.90;8.00;;;14.30;56.90;;;;;;5070039;28;20204;-85
2023/03/12 09:17:30;;;;;;;42.00;8.83;;;14.20;56.90;;;;;;5069479;28;20199;-85
2023/03/12 09:19:57;;;;;;;36.63;8.10;;;14.30;56.90;;;;;;5069748;28;20213;-85
2023/03/12 09:22:24;;;;;;;45.40;9.10;;;14.30;56.90;;;;;;5069342;28;20215;-86
2023/03/12 09:24:52;;;;;;;43.90;8.43;;;14.30;56.90;;;;;;5062823;28;20201;-85
2023/03/12 09:27:19;;;;;;;38.67;8.27;;;14.30;56.90;;;;;;5069473;28;20207;-85
2023/03/12 09:29:48;;;;;;;37.20;8.23;;;14.40;56.90;;;;;;5069335;28;20201;-85
2023/03/12 09:32:15;;;;;;;28.73;7.53;;;14.30;56.90;;;;;;5068856;28;21025;-85
2023/03/12 09:34:45;;;;;;;43.63;8.67;;;14.40;56.90;;;;;;5069401;28;20628;-85
2023/03/12 09:37:12;;;;;;;35.87;8.10;;;14.40;56.90;;;;;;5069498;28;20200;-87
2023/03/12 09:39:39;;;;;;;42.43;9.10;;;14.40;56.90;;;;;;5067729;28;20212;-85
2023/03/12 09:42:16;;;;;;;57.20;9.73;;;14.50;57.00;;;;;;5067787;28;20212;-85
2023/03/12 09:44:45;;;;;;;39.10;8.13;;;14.40;56.90;;;;;;5068638;28;20587;-86
2023/03/12 09:47:23;;;;;;;36.97;8.07;;;14.40;56.90;;;;;;5069116;28;20203;-85
2023/03/12 09:49:55;;;;;;;41.07;8.10;;;14.40;56.90;;;;;;5066287;28;20195;-85
2023/03/12 09:52:28;;;;;;;44.47;8.27;;;14.40;56.90;;;;;;5069264;28;20287;-87
2023/03/12 09:55:00;;;;;;;33.23;7.70;;;14.50;57.00;;;;;;5069088;28;20285;-86
2023/03/12 09:57:28;;;;;;;45.17;8.40;;;14.50;57.00;;;;;;5068820;28;20200;-85
2023/03/12 09:59:56;;;;;;;36.93;7.50;;;14.50;57.00;;;;;;5068673;28;20210;-85
2023/03/12 10:02:40;;;;;;;40.23;8.07;;;14.50;57.00;;;;;;5068385;28;20210;-87
2023/03/12 10:05:14;;;;;;;37.30;7.60;;;14.50;57.00;;;;;;5068359;28;20247;-86
2023/03/12 10:07:47;;;;;;;36.37;7.93;;;14.50;57.00;;;;;;5068898;28;20195;-92
2023/03/12 10:10:28;;;;;;;43.83;8.20;;;14.50;57.00;;;;;;5069145;28;20198;-86
2023/03/12 10:13:10;;;;;;;38.60;7.87;;;14.60;57.10;;;;;;5068617;28;20651;-90
2023/03/12 10:15:44;;;;;;;38.87;7.67;;;14.60;57.10;;;;;;5068416;28;20562;-87
2023/03/12 10:18:26;;;;;;;30.87;7.03;;;14.60;57.10;;;;;;5067832;28;20200;-90
2023/03/12 10:21:06;;;;;;;38.67;7.90;;;14.60;57.10;;;;;;5055576;28;20212;-86
2023/03/12 10:23:57;;;;;;;38.97;7.90;;;14.60;57.10;;;;;;5048769;28;20215;-91
2023/03/12 10:26:26;;;;;;;48.07;8.63;;;14.60;57.10;;;;;;5048972;28;20207;-91
2023/03/12 10:28:57;;;;;;;36.87;7.47;;;14.80;57.20;;;;;;5048891;28;20228;-91
2023/03/12 10:31:29;;;;;;;33.90;7.43;;;14.70;57.10;;;;;;5048570;28;20202;-88
2023/03/12 10:33:57;;;;;;;26.73;6.57;;;14.70;57.10;;;;;;5060785;28;20284;-91
2023/03/12 10:36:33;;;;;;;33.67;7.77;;;14.70;57.10;;;;;;5066466;28;20782;-92
2023/03/12 10:39:00;;;;;;;31.67;7.07;;;14.70;57.10;;;;;;5068366;28;20637;-89
2023/03/12 10:41:30;;;;;;;34.60;8.27;;;14.70;57.10;;;;;;5068694;28;20239;-87
2023/03/12 10:44:01;;;;;;;53.90;9.30;;;14.70;57.10;;;;;;5068599;28;20357;-86
2023/03/12 10:47:16;;;;;;;43.00;9.03;;;14.80;57.10;;;;;;5068742;28;20538;-86
2023/03/12 10:49:45;;;;;;;44.20;8.20;;;14.80;57.30;;;;;;5022870;28;20192;-88
2023/03/12 10:52:18;;;;;;;36.80;7.83;;;14.80;57.10;;;;;;5013784;28;20212;-86
2023/03/12 10:54:47;;;;;;;35.17;7.07;;;14.80;57.20;;;;;;5031340;28;20232;-85
2023/03/12 10:57:16;;;;;;;35.90;7.40;;;14.90;57.30;;;;;;5050137;28;20203;-86
2023/03/12 10:59:44;;;;;;;40.50;7.97;;;14.80;57.20;;;;;;5049421;28;20204;-86
2023/03/12 11:02:33;;;;;;;37.40;7.83;;;14.90;57.20;;;;;;5049162;28;20272;-89
2023/03/12 11:05:01;;;;;;;32.40;6.87;;;14.90;57.30;;;;;;5068391;28;20214;-86
2023/03/12 11:07:32;;;;;;;32.17;7.43;;;14.90;57.20;;;;;;5070344;28;20282;-91
2023/03/12 11:10:19;;;;;;;33.67;7.33;;;14.90;57.30;;;;;;5073517;28;20203;-88
2023/03/12 11:13:04;;;;;;;28.77;6.93;;;14.90;57.30;;;;;;5073192;28;20203;-92
2023/03/12 11:15:39;;;;;;;32.80;7.47;;;15.00;57.30;;;;;;5073934;28;20210;-92
2023/03/12 11:18:25;;;;;;;54.57;8.77;;;15.00;57.30;;;;;;5071636;28;20278;-92
2023/03/12 11:20:55;;;;;;;28.33;6.87;;;15.00;57.40;;;;;;5053365;28;20211;-92
2023/03/12 11:23:27;;;;;;;38.27;7.87;;;15.00;57.30;;;;;;5054571;28;20204;-89
2023/03/12 11:25:58;;;;;;;35.60;7.73;;;15.00;57.30;;;;;;5071807;28;20212;-90
2023/03/12 11:28:33;;;;;;;39.37;7.67;;;15.10;57.40;;;;;;5072611;28;20196;-88
2023/03/12 11:31:01;;;;;;;43.83;7.90;;;15.10;57.40;;;;;;5065573;28;20207;-85
2023/03/12 11:33:28;;;;;;;39.00;7.80;;;15.10;57.30;;;;;;5071652;28;20226;-92
2023/03/12 11:36:17;;;;;;;30.33;7.70;;;15.20;57.50;;;;;;5074219;28;20212;-93
2023/03/12 11:38:54;;;;;;;43.27;8.77;;;15.10;57.40;;;;;;5071703;28;20193;-95
2023/03/12 11:41:47;;;;;;;41.30;8.10;;;15.10;57.30;;;;;;5069056;28;20204;-90
2023/03/12 11:44:25;;;;;;;31.03;6.73;;;15.10;57.40;;;;;;5067276;28;20680;-91
2023/03/12 11:47:03;;;;;;;33.50;7.50;;;15.10;57.40;;;;;;5069444;28;21104;-92
2023/03/12 11:49:44;;;;;;;37.70;7.90;;;15.20;57.40;;;;;;5061983;28;20624;-94
2023/03/12 11:52:19;;;;;;;44.70;9.00;;;15.20;57.40;;;;;;5071659;28;20200;-91
2023/03/12 11:55:07;;;;;;;38.17;7.93;;;15.20;57.40;;;;;;5064870;28;20328;-89
2023/03/12 11:57:46;;;;;;;36.30;7.43;;;15.20;57.40;;;;;;5071710;28;20204;-91
2023/03/12 12:00:16;;;;;;;35.30;7.67;;;15.20;57.40;;;;;;5071812;28;20356;-87
2023/03/12 12:03:31;;;;;;;41.20;8.03;;;15.20;57.30;;;;;;5069150;28;20205;-89
2023/03/12 12:06:05;;;;;;;27.23;6.83;;;15.20;57.40;;;;;;5057959;28;20205;-88
2023/03/12 12:08:43;;;;;;;43.30;8.27;;;15.20;57.30;;;;;;5068328;28;20207;-87
2023/03/12 12:11:19;;;;;;;35.03;8.03;;;15.20;57.40;;;;;;5070849;28;20230;-86
2023/03/12 12:14:01;;;;;;;40.80;8.53;;;15.30;57.40;;;;;;5070266;28;20231;-88
2023/03/12 12:16:58;;;;;;;45.77;9.07;;;15.30;57.40;;;;;;5065302;28;20216;-87
2023/03/12 12:19:36;;;;;;;30.17;6.97;;;15.30;57.50;;;;;;5055237;28;20198;-91
2023/03/12 12:22:15;;;;;;;37.47;7.77;;;15.30;57.40;;;;;;5069622;28;20216;-91
2023/03/12 12:25:06;;;;;;;38.50;7.80;;;15.30;57.40;;;;;;5072190;28;20204;-89
2023/03/12 12:27:44;;;;;;;43.40;8.30;;;15.30;57.40;;;;;;5050286;28;20196;-92
2023/03/12 12:30:18;;;;;;;24.83;6.53;;;15.30;57.30;;;;;;5066703;28;20215;-87
2023/03/12 12:33:01;;;;;;;37.00;7.67;;;15.30;57.40;;;;;;5069042;28;20679;-86
2023/03/12 12:35:34;;;;;;;27.00;6.60;;;15.30;57.40;;;;;;5067753;28;20296;-86
2023/03/12 12:38:05;;;;;;;29.60;7.73;;;15.30;57.40;;;;;;5071236;28;20208;-86
2023/03/12 12:40:36;;;;;;;47.60;8.07;;;15.40;57.50;;;;;;5057494;28;20363;-87
2023/03/12 12:43:22;;;;;;;40.57;7.73;;;15.40;57.50;;;;;;5050420;28;20201;-86
2023/03/12 12:45:52;;;;;;;35.57;7.60;;;15.40;57.50;;;;;;5067348;28;20567;-87
2023/03/12 12:48:23;;;;;;;40.90;8.07;;;15.40;57.50;;;;;;5053144;28;20198;-87
2023/03/12 12:50:53;;;;;;;39.63;7.40;;;15.40;57.50;;;;;;5070595;28;20200;-86